sensor_id;sensor_type;location;lat;lon;timestamp;P1;durP1;ratioP1;P2;durP2;ratioP2
6757;SDS011;3416;53.074;8.822;2023-03-04T00:01:54;16.25;;;4.65;;
6757;SDS011;3416;53.074;8.822;2023-03-04T00:04:23;16.90;;;4.97;;
6757;SDS011;3416;53.074;8.822;2023-03-04T00:06:50;14.75;;;5.32;;
6757;SDS011;3416;53.074;8.822;2023-03-04T00:09:18;11.93;;;4.97;;
6757;SDS011;3416;53.074;8.822;2023-03-04T00:11:45;24.08;;;7.85;;
6757;SDS011;3416;53.074;8.822;2023-03-04T00:14:12;31.88;;;8.02;;
6757;SDS011;3416;53.074;8.822;2023-03-04T00:16:39;24.77;;;6.85;;
6757;SDS011;3416;53.074;8.822;2023-03-04T00:19:06;26.38;;;8.05;;
6757;SDS011;3416;53.074;8.822;2023-03-04T00:21:34;21.45;;;5.55;;
6757;SDS011;3416;53.074;8.822;2023-03-04T00:24:01;18.83;;;5.75;;
6757;SDS011;3416;53.074;8.822;2023-03-04T00:26:28;20.63;;;4.53;;
6757;SDS011;3416;53.074;8.822;2023-03-04T00:28:56;23.45;;;5.80;;
6757;SDS011;3416;53.074;8.822;2023-03-04T00:31:27;21.65;;;6.38;;
6757;SDS011;3416;53.074;8.822;2023-03-04T00:33:54;13.43;;;4.97;;
6757;SDS011;3416;53.074;8.822;2023-03-04T00:36:22;14.32;;;4.15;;
6757;SDS011;3416;53.074;8.822;2023-03-04T00:38:50;13.77;;;4.70;;
6757;SDS011;3416;53.074;8.822;2023-03-04T00:41:17;18.75;;;4.28;;
6757;SDS011;3416;53.074;8.822;2023-03-04T00:43:44;16.38;;;4.75;;
6757;SDS011;3416;53.074;8.822;2023-03-04T00:46:11;23.83;;;4.45;;
6757;SDS011;3416;53.074;8.822;2023-03-04T00:48:39;12.45;;;4.07;;
6757;SDS011;3416;53.074;8.822;2023-03-04T00:51:07;20.98;;;5.60;;
6757;SDS011;3416;53.074;8.822;2023-03-04T00:53:34;19.85;;;5.57;;
6757;SDS011;3416;53.074;8.822;2023-03-04T00:56:03;20.10;;;4.75;;
6757;SDS011;3416;53.074;8.822;2023-03-04T00:58:33;8.38;;;3.35;;
6757;SDS011;3416;53.074;8.822;2023-03-04T01:01:02;16.40;;;3.97;;
6757;SDS011;3416;53.074;8.822;2023-03-04T01:03:29;18.92;;;5.43;;
6757;SDS011;3416;53.074;8.822;2023-03-04T01:05:57;18.73;;;5.25;;
6757;SDS011;3416;53.074;8.822;2023-03-04T01:08:25;7.68;;;3.25;;
6757;SDS011;3416;53.074;8.822;2023-03-04T01:10:54;16.80;;;5.68;;
6757;SDS011;3416;53.074;8.822;2023-03-04T01:13:22;21.52;;;5.18;;
6757;SDS011;3416;53.074;8.822;2023-03-04T01:15:49;15.38;;;5.78;;
6757;SDS011;3416;53.074;8.822;2023-03-04T01:18:16;14.48;;;4.72;;
6757;SDS011;3416;53.074;8.822;2023-03-04T01:20:43;13.38;;;4.57;;
6757;SDS011;3416;53.074;8.822;2023-03-04T01:23:11;28.45;;;4.40;;
6757;SDS011;3416;53.074;8.822;2023-03-04T01:25:37;14.32;;;3.80;;
6757;SDS011;3416;53.074;8.822;2023-03-04T01:28:10;7.80;;;3.30;;
6757;SDS011;3416;53.074;8.822;2023-03-04T01:30:39;10.63;;;3.20;;
6757;SDS011;3416;53.074;8.822;2023-03-04T01:33:08;14.68;;;4.57;;
6757;SDS011;3416;53.074;8.822;2023-03-04T01:35:35;14.20;;;3.30;;
6757;SDS011;3416;53.074;8.822;2023-03-04T01:38:03;18.25;;;4.82;;
6757;SDS011;3416;53.074;8.822;2023-03-04T01:40:30;11.60;;;3.70;;
6757;SDS011;3416;53.074;8.822;2023-03-04T01:42:57;11.68;;;4.20;;
6757;SDS011;3416;53.074;8.822;2023-03-04T01:45:24;11.15;;;3.30;;
6757;SDS011;3416;53.074;8.822;2023-03-04T01:47:53;11.45;;;4.15;;
6757;SDS011;3416;53.074;8.822;2023-03-04T01:50:21;16.77;;;4.22;;
6757;SDS011;3416;53.074;8.822;2023-03-04T01:52:53;13.85;;;3.72;;
6757;SDS011;3416;53.074;8.822;2023-03-04T01:55:21;20.63;;;3.38;;
6757;SDS011;3416;53.074;8.822;2023-03-04T01:57:50;10.55;;;3.30;;
6757;SDS011;3416;53.074;8.822;2023-03-04T02:00:22;20.75;;;4.82;;
6757;SDS011;3416;53.074;8.822;2023-03-04T02:02:53;10.82;;;4.28;;
6757;SDS011;3416;53.074;8.822;2023-03-04T02:05:22;16.73;;;4.45;;
6757;SDS011;3416;53.074;8.822;2023-03-04T02:07:50;17.83;;;3.20;;
6757;SDS011;3416;53.074;8.822;2023-03-04T02:10:18;7.60;;;2.65;;
6757;SDS011;3416;53.074;8.822;2023-03-04T02:12:45;6.30;;;2.53;;
6757;SDS011;3416;53.074;8.822;2023-03-04T02:15:14;14.68;;;2.70;;
6757;SDS011;3416;53.074;8.822;2023-03-04T02:17:42;6.90;;;2.50;;
6757;SDS011;3416;53.074;8.822;2023-03-04T02:20:14;6.85;;;2.03;;
6757;SDS011;3416;53.074;8.822;2023-03-04T02:22:52;6.43;;;2.22;;
6757;SDS011;3416;53.074;8.822;2023-03-04T02:25:25;7.45;;;2.40;;
6757;SDS011;3416;53.074;8.822;2023-03-04T02:27:59;5.13;;;2.35;;
6757;SDS011;3416;53.074;8.822;2023-03-04T02:30:26;12.68;;;3.70;;
6757;SDS011;3416;53.074;8.822;2023-03-04T02:32:53;11.00;;;3.90;;
6757;SDS011;3416;53.074;8.822;2023-03-04T02:35:20;18.02;;;4.45;;
6757;SDS011;3416;53.074;8.822;2023-03-04T02:37:47;14.43;;;3.92;;
6757;SDS011;3416;53.074;8.822;2023-03-04T02:40:15;22.35;;;3.10;;
6757;SDS011;3416;53.074;8.822;2023-03-04T02:42:48;9.13;;;3.25;;
6757;SDS011;3416;53.074;8.822;2023-03-04T02:45:33;20.52;;;4.10;;
6757;SDS011;3416;53.074;8.822;2023-03-04T02:48:05;10.77;;;2.92;;
6757;SDS011;3416;53.074;8.822;2023-03-04T02:50:34;9.68;;;2.58;;
6757;SDS011;3416;53.074;8.822;2023-03-04T02:53:04;10.90;;;3.15;;
6757;SDS011;3416;53.074;8.822;2023-03-04T02:55:31;10.05;;;3.42;;
6757;SDS011;3416;53.074;8.822;2023-03-04T02:57:59;5.43;;;2.22;;
6757;SDS011;3416;53.074;8.822;2023-03-04T03:00:27;14.48;;;3.50;;
6757;SDS011;3416;53.074;8.822;2023-03-04T03:02:56;16.20;;;3.58;;
6757;SDS011;3416;53.074;8.822;2023-03-04T03:05:23;11.65;;;2.97;;
6757;SDS011;3416;53.074;8.822;2023-03-04T03:07:51;11.30;;;2.72;;
6757;SDS011;3416;53.074;8.822;2023-03-04T03:10:19;10.63;;;2.72;;
6757;SDS011;3416;53.074;8.822;2023-03-04T03:12:46;16.88;;;3.08;;
6757;SDS011;3416;53.074;8.822;2023-03-04T03:15:14;17.25;;;3.65;;
6757;SDS011;3416;53.074;8.822;2023-03-04T03:17:41;5.68;;;1.95;;
6757;SDS011;3416;53.074;8.822;2023-03-04T03:20:10;15.15;;;4.30;;
6757;SDS011;3416;53.074;8.822;2023-03-04T03:22:38;11.48;;;3.05;;
6757;SDS011;3416;53.074;8.822;2023-03-04T03:25:06;11.00;;;1.98;;
6757;SDS011;3416;53.074;8.822;2023-03-04T03:27:35;7.63;;;1.95;;
6757;SDS011;3416;53.074;8.822;2023-03-04T03:30:02;13.73;;;2.13;;
6757;SDS011;3416;53.074;8.822;2023-03-04T03:32:30;6.85;;;2.53;;
6757;SDS011;3416;53.074;8.822;2023-03-04T03:34:57;9.15;;;2.03;;
6757;SDS011;3416;53.074;8.822;2023-03-04T03:37:26;11.35;;;2.97;;
6757;SDS011;3416;53.074;8.822;2023-03-04T03:39:53;15.15;;;3.00;;
6757;SDS011;3416;53.074;8.822;2023-03-04T03:42:21;8.88;;;2.63;;
6757;SDS011;3416;53.074;8.822;2023-03-04T03:44:48;12.82;;;1.80;;
6757;SDS011;3416;53.074;8.822;2023-03-04T03:47:16;9.65;;;2.35;;
6757;SDS011;3416;53.074;8.822;2023-03-04T03:49:42;15.18;;;2.60;;
6757;SDS011;3416;53.074;8.822;2023-03-04T03:52:09;11.43;;;2.08;;
6757;SDS011;3416;53.074;8.822;2023-03-04T03:54:38;7.53;;;2.22;;
6757;SDS011;3416;53.074;8.822;2023-03-04T03:57:05;16.77;;;2.88;;
6757;SDS011;3416;53.074;8.822;2023-03-04T03:59:32;12.13;;;2.95;;
6757;SDS011;3416;53.074;8.822;2023-03-04T04:01:58;6.28;;;2.28;;
6757;SDS011;3416;53.074;8.822;2023-03-04T04:04:27;15.05;;;2.65;;
6757;SDS011;3416;53.074;8.822;2023-03-04T04:06:54;13.32;;;2.75;;
6757;SDS011;3416;53.074;8.822;2023-03-04T04:09:21;7.75;;;1.90;;
6757;SDS011;3416;53.074;8.822;2023-03-04T04:11:49;10.85;;;3.28;;
6757;SDS011;3416;53.074;8.822;2023-03-04T04:14:16;13.15;;;2.85;;
6757;SDS011;3416;53.074;8.822;2023-03-04T04:16:43;9.93;;;3.63;;
6757;SDS011;3416;53.074;8.822;2023-03-04T04:19:13;8.00;;;2.65;;
6757;SDS011;3416;53.074;8.822;2023-03-04T04:21:43;7.35;;;3.05;;
6757;SDS011;3416;53.074;8.822;2023-03-04T04:24:10;5.32;;;1.85;;
6757;SDS011;3416;53.074;8.822;2023-03-04T04:26:37;13.82;;;1.95;;
6757;SDS011;3416;53.074;8.822;2023-03-04T04:29:06;4.57;;;1.52;;
6757;SDS011;3416;53.074;8.822;2023-03-04T04:31:34;5.72;;;1.67;;
6757;SDS011;3416;53.074;8.822;2023-03-04T04:34:01;5.60;;;2.97;;
6757;SDS011;3416;53.074;8.822;2023-03-04T04:36:29;7.32;;;1.70;;
6757;SDS011;3416;53.074;8.822;2023-03-04T04:38:56;10.55;;;1.80;;
6757;SDS011;3416;53.074;8.822;2023-03-04T04:41:25;6.68;;;1.85;;
6757;SDS011;3416;53.074;8.822;2023-03-04T04:43:53;7.70;;;1.85;;
6757;SDS011;3416;53.074;8.822;2023-03-04T04:46:23;10.85;;;2.40;;
6757;SDS011;3416;53.074;8.822;2023-03-04T04:48:51;9.57;;;1.77;;
6757;SDS011;3416;53.074;8.822;2023-03-04T04:51:21;6.68;;;1.90;;
6757;SDS011;3416;53.074;8.822;2023-03-04T04:53:48;16.10;;;4.05;;
6757;SDS011;3416;53.074;8.822;2023-03-04T04:56:22;9.30;;;2.15;;
6757;SDS011;3416;53.074;8.822;2023-03-04T04:58:52;10.57;;;2.35;;
6757;SDS011;3416;53.074;8.822;2023-03-04T05:01:19;12.93;;;2.63;;
6757;SDS011;3416;53.074;8.822;2023-03-04T05:03:49;10.55;;;1.95;;
6757;SDS011;3416;53.074;8.822;2023-03-04T05:06:18;8.35;;;2.60;;
6757;SDS011;3416;53.074;8.822;2023-03-04T05:08:45;5.70;;;1.63;;
6757;SDS011;3416;53.074;8.822;2023-03-04T05:11:13;11.90;;;2.60;;
6757;SDS011;3416;53.074;8.822;2023-03-04T05:13:40;8.43;;;2.40;;
6757;SDS011;3416;53.074;8.822;2023-03-04T05:16:07;23.15;;;3.00;;
6757;SDS011;3416;53.074;8.822;2023-03-04T05:18:34;6.53;;;1.92;;
6757;SDS011;3416;53.074;8.822;2023-03-04T05:21:03;11.73;;;2.55;;
6757;SDS011;3416;53.074;8.822;2023-03-04T05:23:31;8.13;;;2.28;;
6757;SDS011;3416;53.074;8.822;2023-03-04T05:25:59;12.13;;;2.35;;
6757;SDS011;3416;53.074;8.822;2023-03-04T05:28:27;8.43;;;3.67;;
6757;SDS011;3416;53.074;8.822;2023-03-04T05:30:54;13.43;;;2.45;;
6757;SDS011;3416;53.074;8.822;2023-03-04T05:33:21;4.65;;;1.40;;
6757;SDS011;3416;53.074;8.822;2023-03-04T05:35:48;6.63;;;2.30;;
6757;SDS011;3416;53.074;8.822;2023-03-04T05:38:18;11.68;;;3.00;;
6757;SDS011;3416;53.074;8.822;2023-03-04T05:40:45;7.60;;;3.05;;
6757;SDS011;3416;53.074;8.822;2023-03-04T05:43:13;28.52;;;5.63;;
6757;SDS011;3416;53.074;8.822;2023-03-04T05:45:40;12.50;;;3.83;;
6757;SDS011;3416;53.074;8.822;2023-03-04T05:48:08;9.93;;;3.00;;
6757;SDS011;3416;53.074;8.822;2023-03-04T05:50:35;6.43;;;3.00;;
6757;SDS011;3416;53.074;8.822;2023-03-04T05:53:02;11.00;;;2.75;;
6757;SDS011;3416;53.074;8.822;2023-03-04T05:55:31;7.60;;;3.45;;
6757;SDS011;3416;53.074;8.822;2023-03-04T05:57:58;12.63;;;3.83;;
6757;SDS011;3416;53.074;8.822;2023-03-04T06:00:25;10.95;;;3.67;;
6757;SDS011;3416;53.074;8.822;2023-03-04T06:02:52;7.68;;;4.00;;
6757;SDS011;3416;53.074;8.822;2023-03-04T06:05:20;13.80;;;6.68;;
6757;SDS011;3416;53.074;8.822;2023-03-04T06:07:47;23.60;;;10.30;;
6757;SDS011;3416;53.074;8.822;2023-03-04T06:10:15;14.57;;;7.45;;
6757;SDS011;3416;53.074;8.822;2023-03-04T06:12:45;17.83;;;8.88;;
6757;SDS011;3416;53.074;8.822;2023-03-04T06:15:12;13.10;;;8.15;;
6757;SDS011;3416;53.074;8.822;2023-03-04T06:17:40;15.90;;;7.53;;
6757;SDS011;3416;53.074;8.822;2023-03-04T06:20:08;19.88;;;8.20;;
6757;SDS011;3416;53.074;8.822;2023-03-04T06:22:36;11.75;;;6.55;;
6757;SDS011;3416;53.074;8.822;2023-03-04T06:25:03;13.65;;;5.97;;
6757;SDS011;3416;53.074;8.822;2023-03-04T06:27:31;14.82;;;6.03;;
6757;SDS011;3416;53.074;8.822;2023-03-04T06:30:06;12.65;;;6.45;;
6757;SDS011;3416;53.074;8.822;2023-03-04T06:32:33;15.38;;;4.72;;
6757;SDS011;3416;53.074;8.822;2023-03-04T06:35:01;13.07;;;4.50;;
6757;SDS011;3416;53.074;8.822;2023-03-04T06:37:28;20.00;;;5.80;;
6757;SDS011;3416;53.074;8.822;2023-03-04T06:39:55;18.10;;;9.27;;
6757;SDS011;3416;53.074;8.822;2023-03-04T06:42:21;16.02;;;9.38;;
6757;SDS011;3416;53.074;8.822;2023-03-04T06:44:48;18.10;;;11.55;;
6757;SDS011;3416;53.074;8.822;2023-03-04T06:47:17;20.63;;;9.45;;
6757;SDS011;3416;53.074;8.822;2023-03-04T06:49:44;17.15;;;11.77;;
6757;SDS011;3416;53.074;8.822;2023-03-04T06:52:11;20.48;;;8.07;;
6757;SDS011;3416;53.074;8.822;2023-03-04T06:54:40;15.85;;;8.88;;
6757;SDS011;3416;53.074;8.822;2023-03-04T06:57:07;19.65;;;7.78;;
6757;SDS011;3416;53.074;8.822;2023-03-04T06:59:34;10.63;;;6.57;;
6757;SDS011;3416;53.074;8.822;2023-03-04T07:02:01;9.75;;;4.15;;
6757;SDS011;3416;53.074;8.822;2023-03-04T07:04:29;7.35;;;3.50;;
6757;SDS011;3416;53.074;8.822;2023-03-04T07:06:56;6.70;;;2.97;;
6757;SDS011;3416;53.074;8.822;2023-03-04T07:09:24;6.55;;;3.88;;
6757;SDS011;3416;53.074;8.822;2023-03-04T07:11:50;5.07;;;2.50;;
6757;SDS011;3416;53.074;8.822;2023-03-04T07:14:17;9.20;;;2.75;;
6757;SDS011;3416;53.074;8.822;2023-03-04T07:16:44;9.02;;;2.97;;
6757;SDS011;3416;53.074;8.822;2023-03-04T07:19:11;5.45;;;2.72;;
6757;SDS011;3416;53.074;8.822;2023-03-04T07:21:40;11.07;;;3.78;;
6757;SDS011;3416;53.074;8.822;2023-03-04T07:24:06;11.75;;;2.72;;
6757;SDS011;3416;53.074;8.822;2023-03-04T07:26:34;13.20;;;3.08;;
6757;SDS011;3416;53.074;8.822;2023-03-04T07:29:02;15.50;;;3.67;;
6757;SDS011;3416;53.074;8.822;2023-03-04T07:31:31;9.52;;;2.30;;
6757;SDS011;3416;53.074;8.822;2023-03-04T07:34:02;13.02;;;2.20;;
6757;SDS011;3416;53.074;8.822;2023-03-04T07:36:31;16.58;;;4.60;;
6757;SDS011;3416;53.074;8.822;2023-03-04T07:39:00;16.40;;;3.05;;
6757;SDS011;3416;53.074;8.822;2023-03-04T07:41:27;12.20;;;3.60;;
6757;SDS011;3416;53.074;8.822;2023-03-04T07:43:55;16.08;;;4.82;;
6757;SDS011;3416;53.074;8.822;2023-03-04T07:46:22;13.50;;;3.70;;
6757;SDS011;3416;53.074;8.822;2023-03-04T07:48:49;17.30;;;5.75;;
6757;SDS011;3416;53.074;8.822;2023-03-04T07:51:18;16.10;;;2.95;;
6757;SDS011;3416;53.074;8.822;2023-03-04T07:53:48;12.23;;;3.22;;
6757;SDS011;3416;53.074;8.822;2023-03-04T07:56:18;14.57;;;4.88;;
6757;SDS011;3416;53.074;8.822;2023-03-04T07:58:47;13.55;;;3.30;;
6757;SDS011;3416;53.074;8.822;2023-03-04T08:01:17;19.63;;;4.30;;
6757;SDS011;3416;53.074;8.822;2023-03-04T08:03:46;14.55;;;3.55;;
6757;SDS011;3416;53.074;8.822;2023-03-04T08:06:15;21.33;;;5.18;;
6757;SDS011;3416;53.074;8.822;2023-03-04T08:08:43;20.65;;;4.80;;
6757;SDS011;3416;53.074;8.822;2023-03-04T08:11:14;20.20;;;4.65;;
6757;SDS011;3416;53.074;8.822;2023-03-04T08:45:34;32.38;;;5.28;;
6757;SDS011;3416;53.074;8.822;2023-03-04T08:48:01;28.50;;;6.70;;
6757;SDS011;3416;53.074;8.822;2023-03-04T08:50:28;25.33;;;5.55;;
6757;SDS011;3416;53.074;8.822;2023-03-04T08:52:55;32.13;;;4.53;;
6757;SDS011;3416;53.074;8.822;2023-03-04T08:55:23;10.18;;;2.60;;
6757;SDS011;3416;53.074;8.822;2023-03-04T08:57:50;15.55;;;2.92;;
6757;SDS011;3416;53.074;8.822;2023-03-04T09:00:17;12.48;;;3.38;;
6757;SDS011;3416;53.074;8.822;2023-03-04T09:02:46;10.30;;;2.50;;
6757;SDS011;3416;53.074;8.822;2023-03-04T09:05:13;10.05;;;2.78;;
6757;SDS011;3416;53.074;8.822;2023-03-04T09:07:40;8.80;;;2.70;;
6757;SDS011;3416;53.074;8.822;2023-03-04T09:10:07;6.18;;;2.67;;
6757;SDS011;3416;53.074;8.822;2023-03-04T09:12:35;10.05;;;2.80;;
6757;SDS011;3416;53.074;8.822;2023-03-04T09:15:02;14.15;;;2.95;;
6757;SDS011;3416;53.074;8.822;2023-03-04T09:17:29;11.43;;;2.67;;
6757;SDS011;3416;53.074;8.822;2023-03-04T09:19:58;20.85;;;3.65;;
6757;SDS011;3416;53.074;8.822;2023-03-04T09:22:25;11.38;;;2.60;;
6757;SDS011;3416;53.074;8.822;2023-03-04T09:24:51;9.20;;;3.03;;
6757;SDS011;3416;53.074;8.822;2023-03-04T09:27:18;16.20;;;3.45;;
6757;SDS011;3416;53.074;8.822;2023-03-04T09:29:45;11.95;;;3.22;;
6757;SDS011;3416;53.074;8.822;2023-03-04T09:32:12;19.95;;;4.85;;
6757;SDS011;3416;53.074;8.822;2023-03-04T09:34:39;12.70;;;3.88;;
6757;SDS011;3416;53.074;8.822;2023-03-04T09:37:08;12.70;;;3.25;;
6757;SDS011;3416;53.074;8.822;2023-03-04T09:39:35;13.50;;;3.33;;
6757;SDS011;3416;53.074;8.822;2023-03-04T09:42:02;11.77;;;3.38;;
6757;SDS011;3416;53.074;8.822;2023-03-04T09:44:32;19.67;;;4.38;;
6757;SDS011;3416;53.074;8.822;2023-03-04T09:47:02;19.10;;;2.90;;
6757;SDS011;3416;53.074;8.822;2023-03-04T09:49:31;19.00;;;4.75;;
6757;SDS011;3416;53.074;8.822;2023-03-04T09:52:00;11.73;;;3.20;;
6757;SDS011;3416;53.074;8.822;2023-03-04T09:54:38;18.20;;;3.58;;
6757;SDS011;3416;53.074;8.822;2023-03-04T09:57:23;9.40;;;3.10;;
6757;SDS011;3416;53.074;8.822;2023-03-04T09:59:59;17.73;;;3.95;;
6757;SDS011;3416;53.074;8.822;2023-03-04T10:02:35;19.40;;;8.07;;
6757;SDS011;3416;53.074;8.822;2023-03-04T10:05:11;26.25;;;3.10;;
6757;SDS011;3416;53.074;8.822;2023-03-04T10:07:45;8.98;;;3.00;;
6757;SDS011;3416;53.074;8.822;2023-03-04T10:10:18;8.70;;;3.38;;
6757;SDS011;3416;53.074;8.822;2023-03-04T10:12:49;13.23;;;3.33;;
6757;SDS011;3416;53.074;8.822;2023-03-04T10:15:22;10.18;;;2.83;;
6757;SDS011;3416;53.074;8.822;2023-03-04T10:17:58;19.20;;;4.70;;
6757;SDS011;3416;53.074;8.822;2023-03-04T10:20:30;14.68;;;4.03;;
6757;SDS011;3416;53.074;8.822;2023-03-04T10:23:09;22.23;;;5.60;;
6757;SDS011;3416;53.074;8.822;2023-03-04T10:25:40;12.07;;;3.67;;
6757;SDS011;3416;53.074;8.822;2023-03-04T10:28:10;17.30;;;3.88;;
6757;SDS011;3416;53.074;8.822;2023-03-04T10:30:43;19.83;;;4.70;;
6757;SDS011;3416;53.074;8.822;2023-03-04T10:33:15;19.10;;;4.75;;
6757;SDS011;3416;53.074;8.822;2023-03-04T10:35:44;10.27;;;2.97;;
6757;SDS011;3416;53.074;8.822;2023-03-04T10:38:15;13.18;;;3.22;;
6757;SDS011;3416;53.074;8.822;2023-03-04T10:40:46;18.80;;;4.28;;
6757;SDS011;3416;53.074;8.822;2023-03-04T10:43:14;17.67;;;4.55;;
6757;SDS011;3416;53.074;8.822;2023-03-04T10:45:43;12.73;;;4.10;;
6757;SDS011;3416;53.074;8.822;2023-03-04T10:48:17;15.73;;;3.70;;
6757;SDS011;3416;53.074;8.822;2023-03-04T10:50:46;14.07;;;3.30;;
6757;SDS011;3416;53.074;8.822;2023-03-04T10:53:27;13.77;;;2.47;;
6757;SDS011;3416;53.074;8.822;2023-03-04T10:55:59;23.00;;;6.80;;
6757;SDS011;3416;53.074;8.822;2023-03-04T10:58:27;18.55;;;4.03;;
6757;SDS011;3416;53.074;8.822;2023-03-04T11:01:01;17.23;;;3.65;;
6757;SDS011;3416;53.074;8.822;2023-03-04T11:03:31;12.40;;;3.25;;
6757;SDS011;3416;53.074;8.822;2023-03-04T11:06:08;8.75;;;4.95;;
6757;SDS011;3416;53.074;8.822;2023-03-04T11:08:40;10.55;;;3.00;;
6757;SDS011;3416;53.074;8.822;2023-03-04T11:14:03;12.93;;;3.47;;
6757;SDS011;3416;53.074;8.822;2023-03-04T11:16:38;20.45;;;3.47;;
6757;SDS011;3416;53.074;8.822;2023-03-04T11:19:09;14.50;;;3.70;;
6757;SDS011;3416;53.074;8.822;2023-03-04T11:21:39;14.18;;;3.95;;
6757;SDS011;3416;53.074;8.822;2023-03-04T11:24:10;19.58;;;5.82;;
6757;SDS011;3416;53.074;8.822;2023-03-04T11:26:44;20.73;;;5.18;;
6757;SDS011;3416;53.074;8.822;2023-03-04T11:29:35;16.50;;;3.88;;
6757;SDS011;3416;53.074;8.822;2023-03-04T11:32:13;18.38;;;5.40;;
6757;SDS011;3416;53.074;8.822;2023-03-04T11:34:47;21.70;;;5.50;;
6757;SDS011;3416;53.074;8.822;2023-03-04T11:37:32;13.60;;;3.65;;
6757;SDS011;3416;53.074;8.822;2023-03-04T11:40:07;17.83;;;5.90;;
6757;SDS011;3416;53.074;8.822;2023-03-04T11:42:39;14.40;;;3.60;;
6757;SDS011;3416;53.074;8.822;2023-03-04T11:48:36;15.70;;;4.03;;
6757;SDS011;3416;53.074;8.822;2023-03-04T11:51:12;10.35;;;3.50;;
6757;SDS011;3416;53.074;8.822;2023-03-04T11:53:54;14.93;;;2.88;;
6757;SDS011;3416;53.074;8.822;2023-03-04T11:56:38;12.82;;;3.53;;
6757;SDS011;3416;53.074;8.822;2023-03-04T11:59:27;14.13;;;3.38;;
6757;SDS011;3416;53.074;8.822;2023-03-04T12:02:15;17.85;;;4.40;;
6757;SDS011;3416;53.074;8.822;2023-03-04T12:04:58;19.40;;;4.57;;
6757;SDS011;3416;53.074;8.822;2023-03-04T12:08:02;12.32;;;4.00;;
6757;SDS011;3416;53.074;8.822;2023-03-04T12:10:41;16.58;;;4.50;;
6757;SDS011;3416;53.074;8.822;2023-03-04T12:13:17;18.45;;;5.15;;
6757;SDS011;3416;53.074;8.822;2023-03-04T12:16:03;16.10;;;3.97;;
6757;SDS011;3416;53.074;8.822;2023-03-04T12:18:43;16.90;;;5.05;;
6757;SDS011;3416;53.074;8.822;2023-03-04T12:21:28;13.15;;;4.22;;
6757;SDS011;3416;53.074;8.822;2023-03-04T12:27:05;25.00;;;4.20;;
6757;SDS011;3416;53.074;8.822;2023-03-04T12:29:45;17.58;;;4.82;;
6757;SDS011;3416;53.074;8.822;2023-03-04T12:32:22;14.98;;;3.92;;
6757;SDS011;3416;53.074;8.822;2023-03-04T12:35:01;10.40;;;3.65;;
6757;SDS011;3416;53.074;8.822;2023-03-04T12:37:45;12.10;;;3.55;;
6757;SDS011;3416;53.074;8.822;2023-03-04T12:40:37;18.20;;;3.45;;
6757;SDS011;3416;53.074;8.822;2023-03-04T12:43:15;24.33;;;4.32;;
6757;SDS011;3416;53.074;8.822;2023-03-04T12:45:57;22.45;;;5.75;;
6757;SDS011;3416;53.074;8.822;2023-03-04T12:48:38;13.05;;;4.55;;
6757;SDS011;3416;53.074;8.822;2023-03-04T12:51:21;16.30;;;3.90;;
6757;SDS011;3416;53.074;8.822;2023-03-04T12:53:56;25.25;;;5.80;;
6757;SDS011;3416;53.074;8.822;2023-03-04T12:56:31;17.88;;;4.55;;
6757;SDS011;3416;53.074;8.822;2023-03-04T12:59:05;16.10;;;4.32;;
6757;SDS011;3416;53.074;8.822;2023-03-04T13:01:40;16.70;;;4.65;;
6757;SDS011;3416;53.074;8.822;2023-03-04T13:04:13;17.67;;;5.20;;
6757;SDS011;3416;53.074;8.822;2023-03-04T13:06:47;13.23;;;3.85;;
6757;SDS011;3416;53.074;8.822;2023-03-04T13:09:20;19.25;;;4.47;;
6757;SDS011;3416;53.074;8.822;2023-03-04T13:12:00;21.45;;;4.75;;
6757;SDS011;3416;53.074;8.822;2023-03-04T13:14:30;15.93;;;4.40;;
6757;SDS011;3416;53.074;8.822;2023-03-04T13:16:58;22.50;;;4.40;;
6757;SDS011;3416;53.074;8.822;2023-03-04T13:19:48;18.20;;;4.50;;
6757;SDS011;3416;53.074;8.822;2023-03-04T13:22:26;21.88;;;4.25;;
6757;SDS011;3416;53.074;8.822;2023-03-04T13:25:31;15.23;;;4.35;;
6757;SDS011;3416;53.074;8.822;2023-03-04T13:28:14;16.50;;;4.35;;
6757;SDS011;3416;53.074;8.822;2023-03-04T13:36:27;19.27;;;3.40;;
6757;SDS011;3416;53.074;8.822;2023-03-04T13:42:01;12.38;;;5.13;;
6757;SDS011;3416;53.074;8.822;2023-03-04T13:47:33;15.60;;;4.20;;
6757;SDS011;3416;53.074;8.822;2023-03-04T13:50:28;16.15;;;3.65;;
6757;SDS011;3416;53.074;8.822;2023-03-04T13:53:19;18.77;;;4.30;;
6757;SDS011;3416;53.074;8.822;2023-03-04T13:56:03;10.85;;;3.53;;
6757;SDS011;3416;53.074;8.822;2023-03-04T13:58:37;15.93;;;5.63;;
6757;SDS011;3416;53.074;8.822;2023-03-04T14:01:04;13.40;;;3.78;;
6757;SDS011;3416;53.074;8.822;2023-03-04T14:03:47;7.63;;;2.50;;
6757;SDS011;3416;53.074;8.822;2023-03-04T14:06:16;13.15;;;3.40;;
6757;SDS011;3416;53.074;8.822;2023-03-04T14:08:46;17.23;;;3.78;;
6757;SDS011;3416;53.074;8.822;2023-03-04T14:11:14;7.05;;;3.05;;
6757;SDS011;3416;53.074;8.822;2023-03-04T14:13:44;20.55;;;3.20;;
6757;SDS011;3416;53.074;8.822;2023-03-04T14:16:18;13.15;;;3.47;;
6757;SDS011;3416;53.074;8.822;2023-03-04T14:18:55;13.38;;;3.42;;
6757;SDS011;3416;53.074;8.822;2023-03-04T14:21:23;15.10;;;3.40;;
6757;SDS011;3416;53.074;8.822;2023-03-04T14:24:03;13.50;;;3.20;;
6757;SDS011;3416;53.074;8.822;2023-03-04T14:29:35;15.70;;;3.15;;
6757;SDS011;3416;53.074;8.822;2023-03-04T14:32:03;17.60;;;4.55;;
6757;SDS011;3416;53.074;8.822;2023-03-04T14:34:32;12.30;;;3.90;;
6757;SDS011;3416;53.074;8.822;2023-03-04T14:37:00;9.15;;;2.38;;
6757;SDS011;3416;53.074;8.822;2023-03-04T14:39:31;22.50;;;3.53;;
6757;SDS011;3416;53.074;8.822;2023-03-04T14:42:02;15.93;;;3.58;;
6757;SDS011;3416;53.074;8.822;2023-03-04T14:44:35;15.55;;;3.97;;
6757;SDS011;3416;53.074;8.822;2023-03-04T14:47:09;11.70;;;4.53;;
6757;SDS011;3416;53.074;8.822;2023-03-04T14:49:42;17.27;;;4.18;;
6757;SDS011;3416;53.074;8.822;2023-03-04T14:55:02;8.98;;;2.35;;
6757;SDS011;3416;53.074;8.822;2023-03-04T14:57:43;12.45;;;2.83;;
6757;SDS011;3416;53.074;8.822;2023-03-04T15:00:15;12.15;;;3.85;;
6757;SDS011;3416;53.074;8.822;2023-03-04T15:02:49;11.80;;;3.00;;
6757;SDS011;3416;53.074;8.822;2023-03-04T15:05:18;15.30;;;3.75;;
6757;SDS011;3416;53.074;8.822;2023-03-04T15:07:49;11.00;;;2.83;;
6757;SDS011;3416;53.074;8.822;2023-03-04T15:10:21;17.95;;;4.35;;
6757;SDS011;3416;53.074;8.822;2023-03-04T15:12:51;22.08;;;3.70;;
6757;SDS011;3416;53.074;8.822;2023-03-04T15:15:36;17.88;;;3.75;;
6757;SDS011;3416;53.074;8.822;2023-03-04T15:18:15;13.70;;;3.47;;
6757;SDS011;3416;53.074;8.822;2023-03-04T15:20:53;16.63;;;3.78;;
6757;SDS011;3416;53.074;8.822;2023-03-04T15:23:21;9.57;;;3.10;;
6757;SDS011;3416;53.074;8.822;2023-03-04T15:25:51;9.52;;;2.33;;
6757;SDS011;3416;53.074;8.822;2023-03-04T15:28:19;15.35;;;2.88;;
6757;SDS011;3416;53.074;8.822;2023-03-04T15:30:48;18.40;;;2.70;;
6757;SDS011;3416;53.074;8.822;2023-03-04T15:33:25;15.88;;;4.10;;
6757;SDS011;3416;53.074;8.822;2023-03-04T15:35:53;13.43;;;3.05;;
6757;SDS011;3416;53.074;8.822;2023-03-04T15:38:22;9.27;;;2.47;;
6757;SDS011;3416;53.074;8.822;2023-03-04T15:40:51;9.77;;;2.83;;
6757;SDS011;3416;53.074;8.822;2023-03-04T15:43:20;11.00;;;3.55;;
6757;SDS011;3416;53.074;8.822;2023-03-04T15:45:49;9.13;;;3.35;;
6757;SDS011;3416;53.074;8.822;2023-03-04T15:48:16;7.00;;;2.72;;
6757;SDS011;3416;53.074;8.822;2023-03-04T15:50:45;12.38;;;2.90;;
6757;SDS011;3416;53.074;8.822;2023-03-04T15:53:18;7.10;;;2.58;;
6757;SDS011;3416;53.074;8.822;2023-03-04T15:55:52;13.52;;;2.72;;
6757;SDS011;3416;53.074;8.822;2023-03-04T15:58:19;9.32;;;2.40;;
6757;SDS011;3416;53.074;8.822;2023-03-04T16:00:48;9.38;;;3.00;;
6757;SDS011;3416;53.074;8.822;2023-03-04T16:03:17;10.98;;;2.95;;
6757;SDS011;3416;53.074;8.822;2023-03-04T16:05:45;9.95;;;2.53;;
6757;SDS011;3416;53.074;8.822;2023-03-04T16:08:14;12.23;;;3.00;;
6757;SDS011;3416;53.074;8.822;2023-03-04T16:10:44;11.65;;;3.38;;
6757;SDS011;3416;53.074;8.822;2023-03-04T16:13:14;11.00;;;2.75;;
6757;SDS011;3416;53.074;8.822;2023-03-04T16:15:43;7.72;;;2.50;;
6757;SDS011;3416;53.074;8.822;2023-03-04T16:18:11;8.52;;;3.00;;
6757;SDS011;3416;53.074;8.822;2023-03-04T16:20:39;15.68;;;2.53;;
6757;SDS011;3416;53.074;8.822;2023-03-04T16:23:11;8.73;;;3.05;;
6757;SDS011;3416;53.074;8.822;2023-03-04T16:25:41;11.98;;;3.50;;